createdAt,value
2018-08-17T08:47:21.807Z,25.59
2018-08-17T08:49:50.418Z,25.69
2018-08-17T08:52:19.032Z,25.75
2018-08-17T08:54:50.619Z,25.90
2018-08-17T08:57:19.188Z,26.22
2018-08-17T08:59:47.776Z,26.34
2018-08-17T09:02:16.342Z,26.52
2018-08-17T09:04:44.929Z,26.27
2018-08-17T09:07:13.545Z,26.58
2018-08-17T09:09:42.161Z,26.72
2018-08-17T09:12:11.076Z,26.89
2018-08-17T09:14:39.687Z,26.48
2018-08-17T09:17:08.298Z,26.87
2018-08-17T09:19:36.874Z,26.63
2018-08-17T09:22:06.680Z,26.90
2018-08-17T09:24:35.309Z,27.12
2018-08-17T09:27:03.960Z,27.41
2018-08-17T09:29:32.628Z,27.43
2018-08-17T09:32:01.433Z,27.73
2018-08-17T09:34:30.021Z,28.00
2018-08-17T09:36:58.849Z,28.29
2018-08-17T09:39:27.845Z,28.35
2018-08-17T09:41:56.589Z,28.57
2018-08-17T09:44:25.281Z,28.69
2018-08-17T09:46:54.116Z,28.21
2018-08-17T09:49:22.776Z,28.17
2018-08-17T09:51:51.351Z,28.23
2018-08-17T09:54:19.878Z,27.63
2018-08-17T09:56:48.452Z,28.22
2018-08-17T09:59:17.020Z,28.58
2018-08-17T10:01:50.874Z,28.69
2018-08-17T10:04:24.724Z,29.03
2018-08-17T10:06:58.496Z,29.18
2018-08-17T10:10:29.364Z,29.07
2018-08-17T10:12:57.936Z,28.82
2018-08-17T10:15:26.644Z,28.99
2018-08-17T10:17:55.275Z,29.09
2018-08-17T10:20:24.455Z,29.19
2018-08-17T10:22:53.108Z,29.30
2018-08-17T10:25:24.297Z,29.52
2018-08-17T10:27:54.240Z,29.39
2018-08-17T10:30:23.590Z,29.51
2018-08-17T10:33:00.639Z,29.89
2018-08-17T10:35:36.069Z,30.08
2018-08-17T10:38:06.695Z,30.10
2018-08-17T10:40:36.255Z,30.41
2018-08-17T10:43:06.111Z,30.27
2018-08-17T10:45:35.216Z,30.20
2018-08-17T10:48:03.837Z,30.61
2018-08-17T10:50:33.473Z,30.68
2018-08-17T10:53:03.207Z,30.29
2018-08-17T10:55:42.048Z,30.60
2018-08-17T10:58:13.451Z,30.88
2018-08-17T11:00:42.266Z,31.06
2018-08-17T11:03:11.300Z,31.26
2018-08-17T11:05:40.152Z,30.90
2018-08-17T11:08:08.904Z,30.68
2018-08-17T11:10:37.459Z,30.98
2018-08-17T11:13:06.210Z,31.16
2018-08-17T11:15:34.778Z,31.10
2018-08-17T11:18:03.368Z,30.53
2018-08-17T11:20:32.053Z,30.28
2018-08-17T11:23:00.634Z,30.58
2018-08-17T11:25:29.160Z,29.74
2018-08-17T11:27:57.732Z,30.28
2018-08-17T11:30:26.316Z,30.68
2018-08-17T11:32:54.900Z,30.78
2018-08-17T11:35:23.526Z,31.22
2018-08-17T11:37:52.344Z,31.07
2018-08-17T11:40:20.949Z,31.59
2018-08-17T11:42:50.782Z,31.21
2018-08-17T11:45:20.955Z,31.22
2018-08-17T11:47:50.077Z,31.57
2018-08-17T11:50:21.135Z,31.49
2018-08-17T11:53:04.815Z,31.19
2018-08-17T11:55:34.325Z,31.05
2018-08-17T11:58:03.028Z,31.43
2018-08-17T12:00:35.997Z,31.11
2018-08-17T12:03:04.915Z,30.34
2018-08-17T12:05:33.695Z,30.74
2018-08-17T12:08:02.353Z,31.24
2018-08-17T12:10:30.880Z,31.75
2018-08-17T12:13:03.672Z,32.22
2018-08-17T12:15:36.608Z,32.42
2018-08-17T12:18:05.451Z,32.46
2018-08-17T12:20:34.015Z,32.26
2018-08-17T12:23:02.580Z,31.41
2018-08-17T12:25:31.242Z,31.09
2018-08-17T12:28:01.712Z,30.29
2018-08-17T12:30:30.293Z,30.34
2018-08-17T12:32:58.864Z,30.33
2018-08-17T12:35:27.488Z,30.45
2018-08-17T12:38:01.329Z,30.82
2018-08-17T12:40:35.867Z,30.88
2018-08-17T12:43:04.473Z,31.18
2018-08-17T12:45:33.036Z,31.16
2018-08-17T12:48:01.600Z,31.35
2018-08-17T12:50:30.180Z,30.76
2018-08-17T12:52:58.748Z,31.06
2018-08-17T12:55:27.300Z,31.07
2018-08-17T12:57:55.880Z,31.16
2018-08-17T13:00:24.585Z,31.04
2018-08-17T13:02:53.153Z,30.35
2018-08-17T13:05:21.680Z,30.84
2018-08-17T13:07:50.249Z,31.28
2018-08-17T13:10:18.820Z,31.55
2018-08-17T13:12:54.940Z,31.98
2018-08-17T13:15:23.850Z,31.78
2018-08-17T13:17:52.436Z,31.56
2018-08-17T13:20:21.378Z,31.42
2018-08-17T13:22:50.712Z,31.61
2018-08-17T13:25:20.645Z,31.95
2018-08-17T13:27:49.198Z,32.39
2018-08-17T13:30:17.789Z,32.74
2018-08-17T13:32:46.341Z,32.42
2018-08-17T13:35:14.873Z,32.69
2018-08-17T13:37:43.995Z,32.64
2018-08-17T13:40:12.584Z,33.02
2018-08-17T13:42:41.197Z,33.28
2018-08-17T13:45:10.841Z,33.32
2018-08-17T13:47:39.566Z,33.06
2018-08-17T13:50:08.176Z,32.35
2018-08-17T13:52:36.737Z,32.24
2018-08-17T13:55:05.305Z,32.21
2018-08-17T13:57:33.881Z,32.01
2018-08-17T14:00:02.469Z,32.15
2018-08-17T14:02:31.073Z,32.03
2018-08-17T14:04:59.618Z,31.98
2018-08-17T14:07:28.224Z,31.70
2018-08-17T14:09:56.838Z,31.17
2018-08-17T14:12:25.357Z,31.05
2018-08-17T14:14:53.934Z,31.11
2018-08-17T14:17:22.543Z,31.26
2018-08-17T14:19:51.352Z,31.26
2018-08-17T14:22:19.983Z,31.40
2018-08-17T14:24:49.126Z,31.73
2018-08-17T14:27:17.674Z,31.81
2018-08-17T14:29:46.216Z,31.71
2018-08-17T14:32:14.800Z,31.62
2018-08-17T14:34:43.570Z,31.35
2018-08-17T14:37:14.173Z,31.20
2018-08-17T14:39:42.740Z,31.02
2018-08-17T14:42:11.285Z,30.78
2018-08-17T14:44:39.854Z,30.82
2018-08-17T14:47:08.509Z,30.92
2018-08-17T14:49:37.059Z,31.13
2018-08-17T14:52:05.612Z,31.38
2018-08-17T14:54:34.205Z,31.28
2018-08-17T14:57:02.792Z,31.45
2018-08-17T14:59:31.492Z,31.72
2018-08-17T15:02:00.063Z,31.45
2018-08-17T15:04:28.906Z,31.46
2018-08-17T15:06:57.621Z,30.65
2018-08-17T15:09:26.459Z,30.98
2018-08-17T15:11:55.029Z,30.90
2018-08-17T15:14:23.798Z,30.76
2018-08-17T15:16:52.372Z,30.62
2018-08-17T15:19:20.972Z,30.28
2018-08-17T15:21:49.549Z,30.26
2018-08-17T15:24:18.164Z,30.36
2018-08-17T15:26:46.721Z,30.44
2018-08-17T15:29:15.269Z,30.39
2018-08-17T15:31:43.919Z,30.31
2018-08-17T15:34:12.486Z,29.99
2018-08-17T15:36:41.125Z,30.12
2018-08-17T15:39:09.972Z,30.18
2018-08-17T15:41:44.342Z,30.06
2018-08-17T15:44:24.017Z,30.08
2018-08-17T15:46:52.919Z,30.03
2018-08-17T15:49:33.440Z,29.91
2018-08-17T15:52:03.470Z,29.88
2018-08-17T15:54:32.074Z,29.88
2018-08-17T15:57:00.935Z,29.85
2018-08-17T15:59:29.653Z,29.85
2018-08-17T16:01:58.272Z,29.78
2018-08-17T16:04:26.886Z,29.80
2018-08-17T16:06:55.537Z,29.78
2018-08-17T16:09:24.149Z,29.87
2018-08-17T16:11:52.781Z,30.02
2018-08-17T16:14:21.692Z,30.15
2018-08-17T16:16:50.352Z,30.30
2018-08-17T16:19:18.988Z,30.44
2018-08-17T16:21:47.620Z,30.57
2018-08-17T16:24:16.206Z,30.63
2018-08-17T16:26:44.791Z,30.62
2018-08-17T16:29:13.407Z,30.52
2018-08-17T16:31:43.135Z,30.35
2018-08-17T16:34:11.957Z,30.27
2018-08-17T16:36:43.232Z,30.09
2018-08-17T16:39:17.719Z,29.84
2018-08-17T16:41:46.391Z,29.51
2018-08-17T16:44:15.404Z,29.18
2018-08-17T16:46:44.466Z,28.97
2018-08-17T16:49:13.550Z,28.73
2018-08-17T16:51:42.146Z,28.32
2018-08-17T16:54:10.836Z,28.02
2018-08-17T16:56:39.475Z,27.87
2018-08-17T16:59:08.152Z,27.68
2018-08-17T17:01:36.703Z,27.59
2018-08-17T17:04:05.311Z,27.43
2018-08-17T17:06:34.768Z,27.22
2018-08-17T17:09:06.616Z,27.05
2018-08-17T17:11:35.549Z,26.90
2018-08-17T17:14:04.305Z,26.63
2018-08-17T17:16:47.937Z,26.40
2018-08-17T17:19:20.619Z,26.30
2018-08-17T17:21:50.332Z,26.18
2018-08-17T17:24:19.651Z,26.10
2018-08-17T17:26:48.278Z,26.02
2018-08-17T17:29:16.871Z,26.06
2018-08-17T17:31:48.937Z,26.20
2018-08-17T17:34:17.496Z,26.29
2018-08-17T17:36:46.266Z,26.17
2018-08-17T17:39:15.489Z,26.21
2018-08-17T17:41:44.142Z,26.21
2018-08-17T17:44:12.866Z,26.07
2018-08-17T17:46:41.647Z,25.78
2018-08-17T17:49:10.871Z,25.51
2018-08-17T17:51:39.765Z,25.34
2018-08-17T17:54:08.596Z,25.20
2018-08-17T17:56:37.317Z,25.13
2018-08-17T17:59:10.979Z,25.01
2018-08-17T18:01:40.096Z,24.99
2018-08-17T18:04:08.705Z,24.96
2018-08-17T18:06:37.474Z,24.97
2018-08-17T18:09:07.380Z,24.92
2018-08-17T18:11:36.164Z,24.84
2018-08-17T18:14:04.736Z,24.83
2018-08-17T18:16:33.405Z,24.81
2018-08-17T18:19:02.641Z,24.87
2018-08-17T18:21:33.110Z,24.78
2018-08-17T18:24:06.727Z,24.67
2018-08-17T18:26:35.699Z,24.52
2018-08-17T18:29:04.443Z,24.41
2018-08-17T18:31:33.272Z,24.31
2018-08-17T18:34:01.920Z,24.21
2018-08-17T18:36:30.709Z,24.09
2018-08-17T18:38:59.356Z,23.98
2018-08-17T18:41:27.908Z,23.81
2018-08-17T18:43:56.847Z,23.74
2018-08-17T18:46:25.459Z,23.66
2018-08-17T18:48:54.940Z,23.47
2018-08-17T18:51:23.565Z,23.32
2018-08-17T18:53:52.130Z,23.30
2018-08-17T18:56:20.722Z,23.31
2018-08-17T18:58:49.352Z,23.24
2018-08-17T19:01:17.973Z,23.19
2018-08-17T19:03:46.544Z,23.14
2018-08-17T19:06:15.117Z,23.08
2018-08-17T19:08:45.907Z,23.03
2018-08-17T19:11:14.587Z,22.96
2018-08-17T19:13:44.585Z,22.66
2018-08-17T19:16:13.224Z,22.75
2018-08-17T19:18:41.917Z,22.73
2018-08-17T19:21:13.723Z,22.71
2018-08-17T19:23:42.287Z,22.66
2018-08-17T19:26:11.433Z,22.70
2018-08-17T19:28:40.044Z,22.67
2018-08-17T19:31:08.988Z,22.70
2018-08-17T19:33:37.596Z,22.77
2018-08-17T19:36:06.403Z,22.77
2018-08-17T19:38:37.822Z,22.79
2018-08-17T19:41:06.867Z,22.74
2018-08-17T19:43:36.272Z,22.67
2018-08-17T19:46:05.051Z,22.61
2018-08-17T19:48:33.690Z,22.66
2018-08-17T19:51:02.654Z,22.67
2018-08-17T19:53:31.340Z,22.67
2018-08-17T19:56:00.199Z,22.66
2018-08-17T19:58:28.808Z,22.61
2018-08-17T20:00:57.461Z,22.55
2018-08-17T20:03:26.094Z,22.43
2018-08-17T20:05:54.729Z,22.16
2018-08-17T20:08:23.411Z,22.26
2018-08-17T20:10:52.176Z,22.29
2018-08-17T20:13:20.845Z,22.33
2018-08-17T20:15:49.403Z,22.36
2018-08-17T20:18:18.041Z,22.33
2018-08-17T20:20:46.714Z,22.37
2018-08-17T20:23:15.295Z,22.41
2018-08-17T20:25:43.953Z,22.39
2018-08-17T20:28:12.469Z,22.31
2018-08-17T20:30:41.050Z,22.27
2018-08-17T20:33:17.387Z,22.27
2018-08-17T20:35:46.026Z,22.25
2018-08-17T20:38:14.606Z,22.17
2018-08-17T20:40:43.169Z,22.14
2018-08-17T20:43:11.849Z,22.05
2018-08-17T20:45:40.668Z,21.96
2018-08-17T20:48:09.605Z,21.89
2018-08-17T20:50:38.692Z,21.78
2018-08-17T20:53:07.332Z,21.71
2018-08-17T20:55:35.941Z,21.59
2018-08-17T20:58:04.569Z,21.55
2018-08-17T21:00:33.200Z,21.41
2018-08-17T21:03:01.862Z,21.37
2018-08-17T21:05:30.552Z,21.28
2018-08-17T21:07:59.095Z,21.23
2018-08-17T21:10:27.999Z,21.15
2018-08-17T21:12:56.704Z,21.17
2018-08-17T21:15:25.428Z,21.04
2018-08-17T21:17:54.036Z,20.97
2018-08-17T21:20:22.844Z,20.90
2018-08-17T21:22:51.523Z,20.84
2018-08-17T21:25:20.924Z,20.82
2018-08-17T21:27:49.565Z,20.71
2018-08-17T21:30:18.385Z,20.69
2018-08-17T21:32:46.952Z,20.71
2018-08-17T21:35:16.317Z,20.69
2018-08-17T21:37:44.901Z,20.70
2018-08-17T21:40:18.692Z,20.76
2018-08-17T21:42:50.225Z,20.72
2018-08-17T21:45:18.881Z,20.73
2018-08-17T21:47:47.433Z,20.75
2018-08-17T21:50:16.868Z,20.77
2018-08-17T21:52:45.955Z,20.75
2018-08-17T21:55:14.851Z,20.78
2018-08-17T21:57:43.924Z,20.80
2018-08-17T22:00:21.427Z,20.80
2018-08-17T22:02:50.100Z,20.80
2018-08-17T22:05:24.046Z,20.80
2018-08-17T22:07:52.778Z,20.46
2018-08-17T22:10:21.419Z,20.69
2018-08-17T22:12:50.295Z,20.62
2018-08-17T22:15:18.903Z,20.56
2018-08-17T22:17:47.745Z,20.49
2018-08-17T22:20:16.366Z,20.40
2018-08-17T22:22:44.949Z,20.36
2018-08-17T22:25:17.235Z,20.25
2018-08-17T22:27:45.996Z,20.19
2018-08-17T22:30:18.499Z,20.14
2018-08-17T22:32:47.083Z,20.17
2018-08-17T22:35:16.333Z,20.18
2018-08-17T22:37:44.884Z,20.19
2018-08-17T22:40:13.489Z,20.18
2018-08-17T22:42:42.117Z,20.12
2018-08-17T22:45:10.790Z,20.03
2018-08-17T22:47:39.392Z,19.93
2018-08-17T22:50:08.058Z,19.87
2018-08-17T22:52:36.644Z,19.73
2018-08-17T22:55:08.504Z,19.68
2018-08-17T22:57:37.128Z,19.68
2018-08-17T23:00:17.401Z,19.71
2018-08-17T23:02:46.991Z,19.71
2018-08-17T23:05:18.670Z,19.70
2018-08-17T23:07:47.288Z,19.74
2018-08-17T23:10:20.009Z,19.72
2018-08-17T23:12:49.814Z,19.79
2018-08-17T23:15:18.459Z,19.79
2018-08-17T23:17:48.864Z,19.74
2018-08-17T23:20:21.629Z,19.62
2018-08-17T23:22:51.349Z,19.55
2018-08-17T23:25:21.019Z,19.58
2018-08-17T23:27:50.424Z,19.57
2018-08-17T23:30:19.225Z,19.54
2018-08-17T23:32:48.115Z,19.53
2018-08-17T23:35:16.820Z,19.47
2018-08-17T23:37:45.479Z,19.51
2018-08-17T23:40:14.174Z,19.45
2018-08-17T23:42:42.908Z,19.43
2018-08-17T23:45:15.061Z,19.38
2018-08-17T23:47:43.624Z,19.32
2018-08-17T23:50:13.489Z,19.31
2018-08-17T23:52:42.274Z,19.27
2018-08-17T23:55:16.499Z,19.22
2018-08-17T23:57:45.200Z,19.16
